Orkun Kalkavan — V7JB8 — position and weather

sailwx.info

Track history (hours):
 
Tides and Currents Weather Stations Pressure Air Temp Water Temp Dewpoint Dewpoint Depression Visibility Wind Speed Wind Dir Waves Ship Positions

Orkun Kalkavan

Last reported at 2014-Jun-28 09:18 UTC. Time now 2014-Oct-01 20:18 UTC.
Position N 40°50' E 029°12'.
Warning: this ship's position is months out of date.

Type: Cargo ship. MMSI: 538090193.

Date/timePositionNaut miles runAvg speedWind from/ knotsBaromVisibWave heightAir tempDewpointWater temp
2014-Jun-28 09:18N 40°50' E 029°12'1 0.9
2014-Jun-28 08:33N 40°50' E 029°12'0 0.1
2014-Jun-28 07:33N 40°50' E 029°12'5 4.6
2014-Jun-28 06:33N 40°46' E 029°15'111 4.8
2014-Jun-27 07:27N 40°28' E 026°51'5213.1
2014-Jun-27 03:30N 39°56' E 025°57'1514.8
2014-Jun-27 02:30N 39°42' E 025°51'144 5.0
2014-Jun-25 21:33N 37°25' E 026°49'29213.9
2014-Jun-25 00:33N 34°33' E 031°39'1514.8
2014-Jun-24 23:33N 34°24' E 031°54'1514.7
2014-Jun-24 22:33N 34°14' E 032°07'1514.6
2014-Jun-24 21:33N 34°05' E 032°21'1514.6
2014-Jun-24 20:33N 33°56' E 032°35'1514.7
2014-Jun-24 19:33N 33°47' E 032°49'1514.9
2014-Jun-24 18:33N 33°38' E 033°03'1514.9
2014-Jun-24 17:33N 33°29' E 033°18'1514.7
2014-Jun-24 16:33N 33°20' E 033°31'1514.6
2014-Jun-24 15:34N 33°12' E 033°46'1414.4
2014-Jun-24 14:33N 33°03' E 033°59'1414.0
2014-Jun-24 13:33N 32°59' E 034°16'1414.1
2014-Jun-24 12:32N 32°57' E 034°32'15 1.1
2014-Jun-23 22:33N 32°53' E 034°50'1515.0
2014-Jun-23 21:33N 32°38' E 034°45'1514.9
2014-Jun-23 20:33N 32°24' E 034°40'75 1.6
2014-Jun-21 23:10N 33°34' E 034°10'  
2014-Jun-19 16:24N 37°11' E 026°58'1214.8
2014-Jun-19 15:33N 37°21' E 026°50'1814.8
2014-Jun-19 14:21N 37°36' E 026°37'1214.8
2014-Jun-19 13:31N 37°45' E 026°26'1414.8
2014-Jun-19 12:34N 37°54' E 026°13'  
Track history (hours):
 
Tides and Currents Weather Stations Pressure Air Temp Water Temp Dewpoint Dewpoint Depression Visibility Wind Speed Wind Dir Waves Ship Positions

Orkun Kalkavan

Last reported at 2014-Jun-28 09:18 UTC. Time now 2014-Oct-01 20:18 UTC.
Position N 40°50' E 029°12'.
Warning: this ship's position is months out of date.

Type: Cargo ship. MMSI: 538090193.

Date/timePositionNaut miles runAvg speedWind from/ knotsBaromVisibWave heightAir tempDewpointWater temp
2014-Jun-28 09:18N 40°50' E 029°12'1 0.9
2014-Jun-28 08:33N 40°50' E 029°12'0 0.1
2014-Jun-28 07:33N 40°50' E 029°12'5 4.6
2014-Jun-28 06:33N 40°46' E 029°15'111 4.8
2014-Jun-27 07:27N 40°28' E 026°51'5213.1
2014-Jun-27 03:30N 39°56' E 025°57'1514.8
2014-Jun-27 02:30N 39°42' E 025°51'144 5.0
2014-Jun-25 21:33N 37°25' E 026°49'29213.9
2014-Jun-25 00:33N 34°33' E 031°39'1514.8
2014-Jun-24 23:33N 34°24' E 031°54'1514.7
2014-Jun-24 22:33N 34°14' E 032°07'1514.6
2014-Jun-24 21:33N 34°05' E 032°21'1514.6
2014-Jun-24 20:33N 33°56' E 032°35'1514.7
2014-Jun-24 19:33N 33°47' E 032°49'1514.9
2014-Jun-24 18:33N 33°38' E 033°03'1514.9
2014-Jun-24 17:33N 33°29' E 033°18'1514.7
2014-Jun-24 16:33N 33°20' E 033°31'1514.6
2014-Jun-24 15:34N 33°12' E 033°46'1414.4
2014-Jun-24 14:33N 33°03' E 033°59'1414.0
2014-Jun-24 13:33N 32°59' E 034°16'1414.1
2014-Jun-24 12:32N 32°57' E 034°32'15 1.1
2014-Jun-23 22:33N 32°53' E 034°50'1515.0
2014-Jun-23 21:33N 32°38' E 034°45'1514.9
2014-Jun-23 20:33N 32°24' E 034°40'75 1.6
2014-Jun-21 23:10N 33°34' E 034°10'  
2014-Jun-19 16:24N 37°11' E 026°58'1214.8
2014-Jun-19 15:33N 37°21' E 026°50'1814.8
2014-Jun-19 14:21N 37°36' E 026°37'1214.8
2014-Jun-19 13:31N 37°45' E 026°26'1414.8
2014-Jun-19 12:34N 37°54' E 026°13'  

Dump ship's entire track history